Terminal Aerodrome Forecast
Issued by NWS Twin Cities, MN

Home | Current Version | Previous Version | Graphics & Text | Print | Product List | Glossary On
Versions: 1 2 3 4 5 6 7 8 9 10 11 12 13 14 15 16 17 18 19
000
FTUS43 KMPX 170709 AAA
TAFSTC
TAF AMD
KSTC 170709Z 1707/1806 VRB02KT 4SM BR OVC018
      TEMPO 1712/1714 1SM BR BKN008
     FM171500 25004KT P6SM SCT150
     FM180000 20005KT P6SM SCT250=

USA.gov is the U.S. government's official web portal to all federal, state and local government web resources and services.